Hove, Belgium
Current Conditions -  °F | °C
As of 5:20 PM on Thursday 29 Jan 2015 (Local Time) from EBAW Reporting Station
Few Clouds Few Clouds  
Wind Chill: 32°   Ceiling: Unl
Heat Index: 39°   Visibility: 6mi
Dew Point: 34°   Wind: 13mph
Humidity: 81%   Direction: 210°SSW
Pressure: 28.88"   Gusts: NA
Location:  51.15°N, 4.47°E
Report Text: EBAW 291620Z 21011KT 9999 FEW019 04/01 Q0978 TEMPO 23018G30KT 6000 SHRA
Loading
Personal Weather Stations






























Interactive Weather Map New forecast layout! Learn more

10-Day Weather Forecast

Advertisements
Track Severe Weather on mobile